Terminal Aerodrome Forecast
Issued by NWS Central Illinois

Home | Current Version | Previous Version | Text Only | Print | Product List | Glossary On
Versions: 1 2 3 4 5 6 7 8 9 10 11 12 13 14 15 16 17 18 19 20 21 22 23 24 25
000
FTUS43 KILX 291801 AAA
TAFPIA
TAF AMD
KPIA 291801Z 2918/3018 29010G16KT P6SM FEW045
     FM300100 22003KT P6SM SCT250
     FM301500 26007KT P6SM SCT050 SCT250=

USA.gov is the U.S. government's official web portal to all federal, state and local government web resources and services.